createdAt,value
2022-11-26T00:02:22.138Z,64.17
2022-11-26T00:07:29.417Z,64.99
2022-11-26T00:12:35.747Z,64.78
2022-11-26T00:17:39.126Z,65.09
2022-11-26T00:22:44.754Z,64.88
2022-11-26T00:27:50.521Z,64.59
2022-11-26T00:32:54.569Z,64.66
2022-11-26T00:37:59.519Z,64.44
2022-11-26T00:43:04.133Z,64.36
2022-11-26T00:48:07.439Z,64.78
2022-11-26T00:53:15.303Z,64.38
2022-11-26T00:58:26.160Z,64.17
2022-11-26T01:03:29.689Z,64.98
2022-11-26T01:08:35.654Z,64.84
2022-11-26T01:13:40.294Z,64.76
2022-11-26T01:18:43.425Z,65.55
2022-11-26T01:23:46.823Z,64.96
2022-11-26T01:28:51.947Z,64.77
2022-11-26T01:33:56.172Z,64.93
2022-11-26T01:39:01.671Z,65.16
2022-11-26T01:44:14.707Z,65.03
2022-11-26T01:49:21.240Z,65.27
2022-11-26T01:54:24.619Z,64.90
2022-11-26T01:59:34.077Z,64.67
2022-11-26T02:04:40.857Z,64.89
2022-11-26T02:09:45.034Z,64.66
2022-11-26T02:14:50.064Z,64.89
2022-11-26T02:20:32.202Z,64.46
2022-11-26T02:25:55.341Z,64.85
2022-11-26T02:31:08.612Z,65.39
2022-11-26T02:36:17.231Z,66.07
2022-11-26T02:41:20.798Z,64.94
2022-11-26T02:46:25.673Z,64.88
2022-11-26T02:51:34.740Z,65.13
2022-11-26T02:56:41.103Z,65.38
2022-11-26T03:01:53.649Z,65.10
2022-11-26T03:06:59.652Z,65.30
2022-11-26T03:12:03.053Z,65.26
2022-11-26T03:17:07.847Z,64.77
2022-11-26T03:22:10.727Z,65.95
2022-11-26T03:27:14.006Z,65.74
2022-11-26T03:32:18.568Z,65.54
2022-11-26T03:37:21.811Z,65.07
2022-11-26T03:42:25.124Z,65.06
2022-11-26T03:47:29.866Z,64.48
2022-11-26T03:52:33.155Z,64.66
2022-11-26T03:57:36.690Z,64.49
2022-11-26T04:02:41.493Z,64.84
2022-11-26T04:07:44.817Z,65.10
2022-11-26T04:12:48.143Z,64.55
2022-11-26T04:17:53.164Z,65.04
2022-11-26T04:22:56.476Z,64.42
2022-11-26T04:27:59.717Z,64.28
2022-11-26T04:33:04.468Z,63.92
2022-11-26T04:38:07.429Z,65.08
2022-11-26T04:43:10.756Z,64.73
2022-11-26T04:48:15.495Z,64.89
2022-11-26T04:53:22.062Z,64.56
2022-11-26T04:58:25.481Z,64.93
2022-11-26T05:03:30.079Z,64.98
2022-11-26T05:08:33.289Z,64.93
2022-11-26T05:13:36.612Z,64.92
2022-11-26T05:18:41.240Z,64.69
2022-11-26T05:23:44.299Z,63.99
2022-11-26T05:28:47.475Z,65.25
2022-11-26T05:33:52.217Z,64.73
2022-11-26T05:38:55.135Z,65.13
2022-11-26T05:43:58.454Z,65.14
2022-11-26T05:49:03.151Z,64.19
2022-11-26T05:54:07.572Z,64.27
2022-11-26T05:59:11.290Z,64.79
2022-11-26T06:04:16.000Z,64.47
2022-11-26T06:09:19.225Z,63.59
2022-11-26T06:14:22.669Z,63.83
2022-11-26T06:19:27.550Z,63.63
2022-11-26T06:24:30.805Z,63.03
2022-11-26T06:29:34.158Z,63.66
2022-11-26T06:34:39.178Z,62.98
2022-11-26T06:39:42.973Z,63.41
2022-11-26T06:44:46.636Z,63.35
2022-11-26T06:49:51.221Z,63.44
2022-11-26T06:54:54.419Z,62.58
2022-11-26T06:59:57.696Z,63.16
2022-11-26T07:05:02.271Z,62.75
2022-11-26T07:10:09.285Z,63.71
2022-11-26T07:15:13.527Z,63.02
2022-11-26T07:20:18.169Z,62.96
2022-11-26T07:25:21.541Z,63.17
2022-11-26T07:30:24.845Z,62.55
2022-11-26T07:35:29.497Z,62.83
2022-11-26T07:40:32.712Z,62.73
2022-11-26T07:45:38.664Z,62.27
2022-11-26T07:50:46.175Z,62.71
2022-11-26T07:55:49.479Z,62.40
2022-11-26T08:00:54.782Z,62.63
2022-11-26T08:05:59.771Z,62.74
2022-11-26T08:11:02.763Z,61.76
2022-11-26T08:16:06.659Z,61.76
2022-11-26T08:21:11.486Z,61.98
2022-11-26T08:26:29.324Z,61.92
2022-11-26T08:31:41.064Z,62.25
2022-11-26T08:36:48.398Z,62.06
2022-11-26T08:41:52.707Z,61.80
2022-11-26T08:46:56.283Z,61.67
2022-11-26T08:52:00.933Z,61.68
2022-11-26T08:57:05.816Z,61.43
2022-11-26T09:02:10.049Z,62.31
2022-11-26T09:07:15.081Z,62.18
2022-11-26T09:12:18.324Z,61.26
2022-11-26T09:17:21.648Z,61.41
2022-11-26T09:22:26.376Z,61.47
2022-11-26T09:27:29.389Z,60.39
2022-11-26T09:32:34.651Z,61.57
2022-11-26T09:37:39.436Z,60.99
2022-11-26T09:42:48.450Z,61.30
2022-11-26T09:47:55.342Z,61.38
2022-11-26T09:53:03.626Z,61.71
2022-11-26T09:58:13.425Z,62.39
2022-11-26T10:03:18.611Z,61.96
2022-11-26T10:08:42.423Z,61.33
2022-11-26T10:13:50.554Z,61.24
2022-11-26T10:19:03.940Z,61.50
2022-11-26T10:24:17.351Z,61.83
2022-11-26T10:29:25.009Z,62.29
2022-11-26T10:34:39.485Z,61.94
2022-11-26T10:39:45.132Z,62.53
2022-11-26T10:44:49.814Z,62.10
2022-11-26T10:49:54.777Z,61.61
2022-11-26T10:55:25.964Z,61.89
2022-11-26T11:00:38.028Z,61.86
2022-11-26T11:05:44.268Z,62.16
2022-11-26T11:10:57.085Z,62.69
2022-11-26T11:16:03.512Z,62.75
2022-11-26T11:21:07.803Z,62.25
2022-11-26T11:26:19.209Z,62.78
2022-11-26T11:31:24.055Z,62.51
2022-11-26T11:36:29.544Z,62.79
2022-11-26T11:41:40.451Z,63.09
2022-11-26T11:46:59.938Z,62.69
2022-11-26T11:52:16.809Z,62.93
2022-11-26T11:57:32.205Z,63.80
2022-11-26T12:03:02.298Z,63.15
2022-11-26T12:08:18.136Z,63.65
2022-11-26T12:13:25.757Z,64.37
2022-11-26T12:18:34.445Z,63.72
2022-11-26T12:23:46.162Z,63.28
2022-11-26T12:28:59.555Z,63.81
2022-11-26T12:34:11.533Z,63.98
2022-11-26T12:39:20.310Z,64.13
2022-11-26T12:44:32.706Z,63.94
2022-11-26T12:49:44.660Z,63.77
2022-11-26T12:54:54.861Z,63.91
2022-11-26T13:00:06.421Z,64.19
2022-11-26T13:05:19.507Z,64.30
2022-11-26T13:10:35.058Z,64.69
2022-11-26T13:15:44.495Z,65.32
2022-11-26T13:21:06.912Z,65.48
2022-11-26T13:26:26.465Z,64.62
2022-11-26T13:31:49.974Z,64.63
2022-11-26T13:37:22.415Z,64.97
2022-11-26T13:42:51.631Z,65.49
2022-11-26T13:48:01.269Z,64.91
2022-11-26T13:53:07.957Z,65.21
2022-11-26T13:58:19.450Z,64.40
2022-11-26T14:03:53.941Z,65.00
2022-11-26T14:08:58.041Z,65.00
2022-11-26T14:14:31.073Z,65.68
2022-11-26T14:20:00.114Z,65.24
2022-11-26T14:25:09.053Z,65.02
2022-11-26T14:30:22.200Z,65.51
2022-11-26T14:35:34.047Z,64.93
2022-11-26T14:40:39.865Z,64.61
2022-11-26T14:45:44.459Z,64.90
2022-11-26T14:50:49.600Z,64.68
2022-11-26T14:55:54.380Z,65.26
2022-11-26T15:01:08.525Z,65.75
2022-11-26T15:06:27.001Z,65.09
2022-11-26T15:11:31.653Z,65.25
2022-11-26T15:16:37.800Z,64.98
2022-11-26T15:21:43.411Z,65.38
2022-11-26T15:26:48.188Z,66.24
2022-11-26T15:31:52.070Z,66.03
2022-11-26T15:36:56.819Z,66.62
2022-11-26T15:42:03.538Z,66.72
2022-11-26T15:47:07.081Z,65.66
2022-11-26T15:52:15.617Z,64.99
2022-11-26T15:57:27.362Z,65.08
2022-11-26T16:02:32.299Z,65.70
2022-11-26T16:07:38.969Z,65.04
2022-11-26T16:12:45.050Z,65.12
2022-11-26T16:17:49.532Z,64.74
2022-11-26T16:22:57.028Z,64.77
2022-11-26T16:28:14.309Z,64.80
2022-11-26T16:33:17.985Z,65.15
2022-11-26T16:38:27.870Z,65.13
2022-11-26T16:43:34.417Z,64.70
2022-11-26T16:48:37.978Z,65.39
2022-11-26T16:53:43.732Z,64.96
2022-11-26T16:58:47.474Z,65.08
2022-11-26T17:03:50.981Z,65.36
2022-11-26T17:08:58.008Z,65.00
2022-11-26T17:14:01.395Z,65.91
2022-11-26T17:19:05.222Z,65.37
2022-11-26T17:24:10.354Z,64.82
2022-11-26T17:29:15.237Z,65.25
2022-11-26T17:34:18.902Z,65.94
2022-11-26T17:39:23.931Z,65.46
2022-11-26T17:44:27.633Z,65.42
2022-11-26T17:49:31.141Z,65.34
2022-11-26T17:54:36.341Z,64.96
2022-11-26T17:59:40.289Z,64.71
2022-11-26T18:04:44.180Z,64.63
2022-11-26T18:09:49.143Z,63.84
2022-11-26T18:14:52.869Z,63.98
2022-11-26T18:19:57.015Z,64.33
2022-11-26T18:25:01.934Z,64.65
2022-11-26T18:30:07.113Z,64.95
2022-11-26T18:35:11.923Z,65.17
2022-11-26T18:40:18.833Z,64.77
2022-11-26T18:45:22.314Z,65.18
2022-11-26T18:50:25.621Z,64.93
2022-11-26T18:55:30.934Z,64.06
2022-11-26T19:00:34.357Z,64.41
2022-11-26T19:05:39.039Z,64.70
2022-11-26T19:10:43.977Z,65.50
2022-11-26T19:15:47.839Z,64.43
2022-11-26T19:20:53.323Z,64.26
2022-11-26T19:25:58.475Z,64.60
2022-11-26T19:31:04.575Z,64.23
2022-11-26T19:36:10.611Z,64.12
2022-11-26T19:41:15.525Z,64.01
2022-11-26T19:46:22.109Z,64.26
2022-11-26T19:51:28.041Z,63.71
2022-11-26T19:56:33.725Z,64.27
2022-11-26T20:01:37.426Z,64.21
2022-11-26T20:06:41.431Z,63.62
2022-11-26T20:11:46.225Z,63.63
2022-11-26T20:16:50.204Z,64.04
2022-11-26T20:21:53.513Z,63.79
2022-11-26T20:26:58.640Z,63.74
2022-11-26T20:32:02.003Z,63.57
2022-11-26T20:37:05.324Z,63.52
2022-11-26T20:42:11.966Z,64.52
2022-11-26T20:47:15.239Z,63.99
2022-11-26T20:52:19.737Z,64.11
2022-11-26T20:57:24.566Z,64.52
2022-11-26T21:02:28.517Z,64.16
2022-11-26T21:07:31.920Z,64.36
2022-11-26T21:12:38.190Z,64.12
2022-11-26T21:17:41.787Z,64.05
2022-11-26T21:22:45.371Z,63.76
2022-11-26T21:27:55.477Z,63.72
2022-11-26T21:33:00.552Z,64.30
2022-11-26T21:38:06.814Z,64.26
2022-11-26T21:43:11.315Z,64.15
2022-11-26T21:48:14.769Z,63.56
2022-11-26T21:53:18.085Z,63.96
2022-11-26T21:58:22.728Z,63.26
2022-11-26T22:03:25.825Z,63.62
2022-11-26T22:08:29.137Z,63.69
2022-11-26T22:13:33.944Z,63.64
2022-11-26T22:18:38.314Z,64.10
2022-11-26T22:23:41.990Z,63.61
2022-11-26T22:28:46.892Z,63.58
2022-11-26T22:33:51.259Z,64.68
2022-11-26T22:38:54.706Z,64.60
2022-11-26T22:44:01.143Z,63.75
2022-11-26T22:49:06.378Z,63.68
2022-11-26T22:54:13.313Z,64.08
2022-11-26T22:59:18.044Z,64.25
2022-11-26T23:04:20.984Z,63.99
2022-11-26T23:09:24.416Z,64.17
2022-11-26T23:14:29.161Z,64.50
2022-11-26T23:19:32.489Z,63.92
2022-11-26T23:24:36.246Z,64.06
2022-11-26T23:29:41.042Z,63.99
2022-11-26T23:34:44.327Z,64.12
2022-11-26T23:39:47.527Z,63.39
2022-11-26T23:44:52.382Z,63.77
2022-11-26T23:49:59.707Z,63.65
2022-11-26T23:55:04.229Z,64.10
